sensor_id;sensor_type;location;lat;lon;timestamp;temperature;humidity
22966;DHT22;11649;48.090;9.754;2023-02-01T00:01:10;3.10;99.90
22966;DHT22;11649;48.090;9.754;2023-02-01T00:03:36;3.20;99.90
22966;DHT22;11649;48.090;9.754;2023-02-01T00:06:04;3.20;99.90
22966;DHT22;11649;48.090;9.754;2023-02-01T00:08:32;3.20;99.90
22966;DHT22;11649;48.090;9.754;2023-02-01T00:11:04;3.10;99.90
22966;DHT22;11649;48.090;9.754;2023-02-01T00:13:33;3.20;99.90
22966;DHT22;11649;48.090;9.754;2023-02-01T00:18:31;3.20;99.90
22966;DHT22;11649;48.090;9.754;2023-02-01T00:20:58;3.20;99.90
22966;DHT22;11649;48.090;9.754;2023-02-01T00:23:25;3.20;99.90
22966;DHT22;11649;48.090;9.754;2023-02-01T00:25:52;3.20;99.90
22966;DHT22;11649;48.090;9.754;2023-02-01T00:28:19;3.20;99.90
22966;DHT22;11649;48.090;9.754;2023-02-01T00:30:45;3.20;99.90
22966;DHT22;11649;48.090;9.754;2023-02-01T00:33:12;3.20;99.90
22966;DHT22;11649;48.090;9.754;2023-02-01T00:35:39;3.20;99.90
22966;DHT22;11649;48.090;9.754;2023-02-01T00:38:05;3.20;99.90
22966;DHT22;11649;48.090;9.754;2023-02-01T00:40:32;3.20;99.90
22966;DHT22;11649;48.090;9.754;2023-02-01T00:42:59;3.10;99.90
22966;DHT22;11649;48.090;9.754;2023-02-01T00:45:26;3.10;99.90
22966;DHT22;11649;48.090;9.754;2023-02-01T00:47:53;3.10;99.90
22966;DHT22;11649;48.090;9.754;2023-02-01T00:50:19;3.10;99.90
22966;DHT22;11649;48.090;9.754;2023-02-01T00:52:47;3.20;99.90
22966;DHT22;11649;48.090;9.754;2023-02-01T00:55:13;3.10;99.90
22966;DHT22;11649;48.090;9.754;2023-02-01T00:57:40;3.20;99.90
22966;DHT22;11649;48.090;9.754;2023-02-01T01:00:07;3.10;99.90
22966;DHT22;11649;48.090;9.754;2023-02-01T01:02:34;3.10;99.90
22966;DHT22;11649;48.090;9.754;2023-02-01T01:05:01;3.20;99.90
22966;DHT22;11649;48.090;9.754;2023-02-01T01:07:28;3.30;99.90
22966;DHT22;11649;48.090;9.754;2023-02-01T01:09:55;3.30;99.90
22966;DHT22;11649;48.090;9.754;2023-02-01T01:12:21;3.20;99.90
22966;DHT22;11649;48.090;9.754;2023-02-01T01:14:49;3.20;99.90
22966;DHT22;11649;48.090;9.754;2023-02-01T01:17:16;3.10;99.90
22966;DHT22;11649;48.090;9.754;2023-02-01T01:19:42;3.20;99.90
22966;DHT22;11649;48.090;9.754;2023-02-01T01:22:09;3.10;99.90
22966;DHT22;11649;48.090;9.754;2023-02-01T01:24:36;3.00;99.90
22966;DHT22;11649;48.090;9.754;2023-02-01T01:27:03;3.10;99.90
22966;DHT22;11649;48.090;9.754;2023-02-01T01:29:29;3.10;99.90
22966;DHT22;11649;48.090;9.754;2023-02-01T01:31:56;3.10;99.90
22966;DHT22;11649;48.090;9.754;2023-02-01T01:34:23;3.10;99.90
22966;DHT22;11649;48.090;9.754;2023-02-01T01:36:50;3.10;99.90
22966;DHT22;11649;48.090;9.754;2023-02-01T01:39:17;3.00;99.90
22966;DHT22;11649;48.090;9.754;2023-02-01T01:41:43;3.00;99.90
22966;DHT22;11649;48.090;9.754;2023-02-01T01:47:15;3.10;99.90
22966;DHT22;11649;48.090;9.754;2023-02-01T01:49:42;3.00;99.90
22966;DHT22;11649;48.090;9.754;2023-02-01T01:52:09;3.00;99.90
22966;DHT22;11649;48.090;9.754;2023-02-01T01:54:46;2.90;99.90
22966;DHT22;11649;48.090;9.754;2023-02-01T01:57:21;2.90;99.90
22966;DHT22;11649;48.090;9.754;2023-02-01T02:00:03;3.00;99.90
22966;DHT22;11649;48.090;9.754;2023-02-01T02:02:30;2.90;99.90
22966;DHT22;11649;48.090;9.754;2023-02-01T02:04:57;2.90;99.90
22966;DHT22;11649;48.090;9.754;2023-02-01T02:07:32;2.80;99.90
22966;DHT22;11649;48.090;9.754;2023-02-01T02:10:00;2.80;99.90
22966;DHT22;11649;48.090;9.754;2023-02-01T02:12:28;2.80;99.90
22966;DHT22;11649;48.090;9.754;2023-02-01T02:14:55;2.80;99.90
22966;DHT22;11649;48.090;9.754;2023-02-01T02:34:40;2.80;99.90
22966;DHT22;11649;48.090;9.754;2023-02-01T02:39:48;2.80;99.90
22966;DHT22;11649;48.090;9.754;2023-02-01T02:45:20;2.80;99.90
22966;DHT22;11649;48.090;9.754;2023-02-01T02:48:24;2.80;99.90
22966;DHT22;11649;48.090;9.754;2023-02-01T02:51:00;2.80;99.90
22966;DHT22;11649;48.090;9.754;2023-02-01T02:54:23;2.70;99.90
22966;DHT22;11649;48.090;9.754;2023-02-01T02:57:03;2.80;99.90
22966;DHT22;11649;48.090;9.754;2023-02-01T02:59:51;2.80;99.90
22966;DHT22;11649;48.090;9.754;2023-02-01T03:02:38;2.80;99.90
22966;DHT22;11649;48.090;9.754;2023-02-01T03:05:23;2.90;99.90
22966;DHT22;11649;48.090;9.754;2023-02-01T03:16:24;2.90;99.90
22966;DHT22;11649;48.090;9.754;2023-02-01T03:21:29;2.90;99.90
22966;DHT22;11649;48.090;9.754;2023-02-01T03:24:04;3.00;99.90
22966;DHT22;11649;48.090;9.754;2023-02-01T03:26:37;2.90;99.90
22966;DHT22;11649;48.090;9.754;2023-02-01T03:29:16;2.90;99.90
22966;DHT22;11649;48.090;9.754;2023-02-01T03:31:44;2.90;99.90
22966;DHT22;11649;48.090;9.754;2023-02-01T03:34:12;3.00;99.90
22966;DHT22;11649;48.090;9.754;2023-02-01T03:36:49;3.00;99.90
22966;DHT22;11649;48.090;9.754;2023-02-01T03:41:48;3.00;99.90
22966;DHT22;11649;48.090;9.754;2023-02-01T03:44:20;2.90;99.90
22966;DHT22;11649;48.090;9.754;2023-02-01T03:47:04;2.90;99.90
22966;DHT22;11649;48.090;9.754;2023-02-01T03:52:02;3.00;99.90
22966;DHT22;11649;48.090;9.754;2023-02-01T03:54:32;3.10;99.90
22966;DHT22;11649;48.090;9.754;2023-02-01T03:57:02;3.10;99.90
22966;DHT22;11649;48.090;9.754;2023-02-01T03:59:31;3.10;99.90
22966;DHT22;11649;48.090;9.754;2023-02-01T04:01:58;3.10;99.90
22966;DHT22;11649;48.090;9.754;2023-02-01T04:04:24;3.10;99.90
22966;DHT22;11649;48.090;9.754;2023-02-01T04:06:51;3.00;99.90
22966;DHT22;11649;48.090;9.754;2023-02-01T04:09:18;3.00;99.90
22966;DHT22;11649;48.090;9.754;2023-02-01T04:11:45;2.90;99.90
22966;DHT22;11649;48.090;9.754;2023-02-01T04:14:12;2.90;99.90
22966;DHT22;11649;48.090;9.754;2023-02-01T04:16:39;2.90;99.90
22966;DHT22;11649;48.090;9.754;2023-02-01T04:19:05;2.90;99.90
22966;DHT22;11649;48.090;9.754;2023-02-01T04:21:32;2.90;99.90
22966;DHT22;11649;48.090;9.754;2023-02-01T04:23:59;2.90;99.90
22966;DHT22;11649;48.090;9.754;2023-02-01T04:26:26;2.90;99.90
22966;DHT22;11649;48.090;9.754;2023-02-01T04:28:52;2.90;99.90
22966;DHT22;11649;48.090;9.754;2023-02-01T04:31:21;2.90;99.90
22966;DHT22;11649;48.090;9.754;2023-02-01T04:33:55;2.90;99.90
22966;DHT22;11649;48.090;9.754;2023-02-01T04:36:24;2.80;99.90
22966;DHT22;11649;48.090;9.754;2023-02-01T04:38:51;2.80;99.90
22966;DHT22;11649;48.090;9.754;2023-02-01T04:41:19;2.80;99.90
22966;DHT22;11649;48.090;9.754;2023-02-01T04:43:47;2.70;99.90
22966;DHT22;11649;48.090;9.754;2023-02-01T04:46:14;2.70;99.90
22966;DHT22;11649;48.090;9.754;2023-02-01T04:48:41;2.80;99.90
22966;DHT22;11649;48.090;9.754;2023-02-01T04:51:08;2.80;99.90
22966;DHT22;11649;48.090;9.754;2023-02-01T04:53:36;2.80;99.90
22966;DHT22;11649;48.090;9.754;2023-02-01T04:56:03;2.80;99.90
22966;DHT22;11649;48.090;9.754;2023-02-01T04:58:30;2.70;99.90
22966;DHT22;11649;48.090;9.754;2023-02-01T05:00:57;2.70;99.90
22966;DHT22;11649;48.090;9.754;2023-02-01T05:03:24;2.80;99.90
22966;DHT22;11649;48.090;9.754;2023-02-01T05:05:50;2.80;99.90
22966;DHT22;11649;48.090;9.754;2023-02-01T05:08:20;2.80;99.90
22966;DHT22;11649;48.090;9.754;2023-02-01T05:10:48;2.80;99.90
22966;DHT22;11649;48.090;9.754;2023-02-01T05:13:15;2.80;99.90
22966;DHT22;11649;48.090;9.754;2023-02-01T05:16:00;2.80;99.90
22966;DHT22;11649;48.090;9.754;2023-02-01T05:18:27;2.80;99.90
22966;DHT22;11649;48.090;9.754;2023-02-01T05:20:55;2.90;99.90
22966;DHT22;11649;48.090;9.754;2023-02-01T05:23:22;3.00;99.90
22966;DHT22;11649;48.090;9.754;2023-02-01T05:25:49;3.10;99.90
22966;DHT22;11649;48.090;9.754;2023-02-01T05:28:16;2.90;99.90
22966;DHT22;11649;48.090;9.754;2023-02-01T05:30:42;3.00;99.90
22966;DHT22;11649;48.090;9.754;2023-02-01T05:33:09;3.00;99.90
22966;DHT22;11649;48.090;9.754;2023-02-01T05:35:43;3.00;99.90
22966;DHT22;11649;48.090;9.754;2023-02-01T05:38:09;3.10;99.90
22966;DHT22;11649;48.090;9.754;2023-02-01T05:40:36;3.00;99.90
22966;DHT22;11649;48.090;9.754;2023-02-01T05:43:03;2.90;99.90
22966;DHT22;11649;48.090;9.754;2023-02-01T05:45:29;2.90;99.90
22966;DHT22;11649;48.090;9.754;2023-02-01T05:47:56;2.90;99.90
22966;DHT22;11649;48.090;9.754;2023-02-01T05:50:23;2.80;99.90
22966;DHT22;11649;48.090;9.754;2023-02-01T05:52:50;2.90;99.90
22966;DHT22;11649;48.090;9.754;2023-02-01T05:55:17;2.90;99.90
22966;DHT22;11649;48.090;9.754;2023-02-01T05:57:43;2.90;99.90
22966;DHT22;11649;48.090;9.754;2023-02-01T06:00:10;2.90;99.90
22966;DHT22;11649;48.090;9.754;2023-02-01T06:02:37;3.00;99.90
22966;DHT22;11649;48.090;9.754;2023-02-01T06:05:04;3.00;99.90
22966;DHT22;11649;48.090;9.754;2023-02-01T06:07:31;2.90;99.90
22966;DHT22;11649;48.090;9.754;2023-02-01T06:09:59;3.00;99.90
22966;DHT22;11649;48.090;9.754;2023-02-01T06:12:25;3.00;99.90
22966;DHT22;11649;48.090;9.754;2023-02-01T06:14:54;3.00;99.90
22966;DHT22;11649;48.090;9.754;2023-02-01T06:17:21;2.90;99.90
22966;DHT22;11649;48.090;9.754;2023-02-01T06:19:48;2.80;99.90
22966;DHT22;11649;48.090;9.754;2023-02-01T06:22:15;2.90;99.90
22966;DHT22;11649;48.090;9.754;2023-02-01T06:24:41;3.00;99.90
22966;DHT22;11649;48.090;9.754;2023-02-01T06:27:08;3.00;99.90
22966;DHT22;11649;48.090;9.754;2023-02-01T06:29:36;3.00;99.90
22966;DHT22;11649;48.090;9.754;2023-02-01T06:32:03;2.90;99.90
22966;DHT22;11649;48.090;9.754;2023-02-01T06:34:30;2.90;99.90
22966;DHT22;11649;48.090;9.754;2023-02-01T06:36:56;2.90;99.90
22966;DHT22;11649;48.090;9.754;2023-02-01T06:39:23;2.90;99.90
22966;DHT22;11649;48.090;9.754;2023-02-01T06:41:50;2.80;99.90
22966;DHT22;11649;48.090;9.754;2023-02-01T06:44:17;2.70;99.90
22966;DHT22;11649;48.090;9.754;2023-02-01T06:46:44;2.70;99.90
22966;DHT22;11649;48.090;9.754;2023-02-01T06:49:10;2.70;99.90
22966;DHT22;11649;48.090;9.754;2023-02-01T06:51:37;2.80;99.90
22966;DHT22;11649;48.090;9.754;2023-02-01T06:54:04;2.90;99.90
22966;DHT22;11649;48.090;9.754;2023-02-01T06:56:31;2.90;99.90
22966;DHT22;11649;48.090;9.754;2023-02-01T06:58:58;2.90;99.90
22966;DHT22;11649;48.090;9.754;2023-02-01T07:01:24;2.80;99.90
22966;DHT22;11649;48.090;9.754;2023-02-01T07:03:51;2.90;99.90
22966;DHT22;11649;48.090;9.754;2023-02-01T07:06:18;2.90;99.90
22966;DHT22;11649;48.090;9.754;2023-02-01T07:08:45;2.80;99.90
22966;DHT22;11649;48.090;9.754;2023-02-01T07:11:14;2.70;99.90
22966;DHT22;11649;48.090;9.754;2023-02-01T07:13:41;2.70;99.90
22966;DHT22;11649;48.090;9.754;2023-02-01T07:16:15;2.80;99.90
22966;DHT22;11649;48.090;9.754;2023-02-01T07:18:42;2.80;99.90
22966;DHT22;11649;48.090;9.754;2023-02-01T07:21:09;2.80;99.90
22966;DHT22;11649;48.090;9.754;2023-02-01T07:23:36;2.80;99.90
22966;DHT22;11649;48.090;9.754;2023-02-01T07:26:05;2.80;99.90
22966;DHT22;11649;48.090;9.754;2023-02-01T07:28:34;2.80;99.90
22966;DHT22;11649;48.090;9.754;2023-02-01T07:31:10;2.80;99.90
22966;DHT22;11649;48.090;9.754;2023-02-01T07:33:37;2.80;99.90
22966;DHT22;11649;48.090;9.754;2023-02-01T07:36:06;2.80;99.90
22966;DHT22;11649;48.090;9.754;2023-02-01T07:38:34;2.80;99.90
22966;DHT22;11649;48.090;9.754;2023-02-01T07:41:02;2.80;99.90
22966;DHT22;11649;48.090;9.754;2023-02-01T07:43:30;2.80;99.90
22966;DHT22;11649;48.090;9.754;2023-02-01T07:45:57;2.70;99.90
22966;DHT22;11649;48.090;9.754;2023-02-01T07:48:25;2.70;99.90
22966;DHT22;11649;48.090;9.754;2023-02-01T07:53:25;2.80;99.90
22966;DHT22;11649;48.090;9.754;2023-02-01T07:55:52;2.80;99.90
22966;DHT22;11649;48.090;9.754;2023-02-01T07:58:19;2.90;99.90
22966;DHT22;11649;48.090;9.754;2023-02-01T08:00:46;2.90;99.90
22966;DHT22;11649;48.090;9.754;2023-02-01T08:03:31;2.80;99.90
22966;DHT22;11649;48.090;9.754;2023-02-01T08:05:58;2.80;99.90
22966;DHT22;11649;48.090;9.754;2023-02-01T08:08:24;2.80;99.90
22966;DHT22;11649;48.090;9.754;2023-02-01T08:10:56;2.90;99.90
22966;DHT22;11649;48.090;9.754;2023-02-01T08:13:23;2.90;99.90
22966;DHT22;11649;48.090;9.754;2023-02-01T08:15:49;3.00;99.90
22966;DHT22;11649;48.090;9.754;2023-02-01T08:18:16;2.90;99.90
22966;DHT22;11649;48.090;9.754;2023-02-01T08:20:44;3.00;99.90
22966;DHT22;11649;48.090;9.754;2023-02-01T08:23:14;3.10;99.90
22966;DHT22;11649;48.090;9.754;2023-02-01T08:25:41;3.10;99.90
22966;DHT22;11649;48.090;9.754;2023-02-01T08:28:08;3.20;99.90
22966;DHT22;11649;48.090;9.754;2023-02-01T08:30:39;3.20;99.90
22966;DHT22;11649;48.090;9.754;2023-02-01T08:33:06;3.20;99.90
22966;DHT22;11649;48.090;9.754;2023-02-01T08:35:37;3.20;99.90
22966;DHT22;11649;48.090;9.754;2023-02-01T08:38:10;3.20;99.90
22966;DHT22;11649;48.090;9.754;2023-02-01T08:40:36;3.20;99.90
22966;DHT22;11649;48.090;9.754;2023-02-01T08:43:03;3.20;99.90
22966;DHT22;11649;48.090;9.754;2023-02-01T08:45:30;3.20;99.90
22966;DHT22;11649;48.090;9.754;2023-02-01T08:47:57;3.20;99.90
22966;DHT22;11649;48.090;9.754;2023-02-01T08:50:25;3.20;99.90
22966;DHT22;11649;48.090;9.754;2023-02-01T08:52:52;3.20;99.90
22966;DHT22;11649;48.090;9.754;2023-02-01T08:55:20;3.20;99.90
22966;DHT22;11649;48.090;9.754;2023-02-01T08:57:47;3.20;99.90
22966;DHT22;11649;48.090;9.754;2023-02-01T09:00:16;3.20;99.90
22966;DHT22;11649;48.090;9.754;2023-02-01T09:02:44;3.10;99.90
22966;DHT22;11649;48.090;9.754;2023-02-01T09:05:11;3.20;99.90
22966;DHT22;11649;48.090;9.754;2023-02-01T09:07:38;3.30;99.90
22966;DHT22;11649;48.090;9.754;2023-02-01T09:10:06;3.30;99.90
22966;DHT22;11649;48.090;9.754;2023-02-01T09:12:34;3.30;99.90
22966;DHT22;11649;48.090;9.754;2023-02-01T09:15:01;3.40;99.90
22966;DHT22;11649;48.090;9.754;2023-02-01T09:17:29;3.30;99.90
22966;DHT22;11649;48.090;9.754;2023-02-01T09:19:56;3.20;99.90
22966;DHT22;11649;48.090;9.754;2023-02-01T09:22:23;3.20;99.90
22966;DHT22;11649;48.090;9.754;2023-02-01T09:24:50;3.30;99.90
22966;DHT22;11649;48.090;9.754;2023-02-01T09:27:20;3.40;99.90
22966;DHT22;11649;48.090;9.754;2023-02-01T09:29:46;3.40;99.90
22966;DHT22;11649;48.090;9.754;2023-02-01T09:32:22;3.40;99.90
22966;DHT22;11649;48.090;9.754;2023-02-01T09:34:51;3.40;99.90
22966;DHT22;11649;48.090;9.754;2023-02-01T09:37:19;3.30;99.90
22966;DHT22;11649;48.090;9.754;2023-02-01T09:39:45;3.30;99.90
22966;DHT22;11649;48.090;9.754;2023-02-01T09:45:45;3.30;99.90
22966;DHT22;11649;48.090;9.754;2023-02-01T09:47:56;3.30;99.90
22966;DHT22;11649;48.090;9.754;2023-02-01T09:50:35;3.30;99.90
22966;DHT22;11649;48.090;9.754;2023-02-01T09:53:15;3.40;99.90
22966;DHT22;11649;48.090;9.754;2023-02-01T09:55:48;3.50;99.90
22966;DHT22;11649;48.090;9.754;2023-02-01T09:58:16;3.50;99.90
22966;DHT22;11649;48.090;9.754;2023-02-01T10:00:54;3.50;99.90
22966;DHT22;11649;48.090;9.754;2023-02-01T10:03:24;3.50;99.90
22966;DHT22;11649;48.090;9.754;2023-02-01T10:14:16;3.50;99.90
22966;DHT22;11649;48.090;9.754;2023-02-01T10:17:01;3.40;99.90
22966;DHT22;11649;48.090;9.754;2023-02-01T10:19:51;3.50;99.90
22966;DHT22;11649;48.090;9.754;2023-02-01T10:22:41;3.50;99.90
22966;DHT22;11649;48.090;9.754;2023-02-01T10:26:05;3.60;99.90
22966;DHT22;11649;48.090;9.754;2023-02-01T10:28:34;3.60;99.90
22966;DHT22;11649;48.090;9.754;2023-02-01T10:31:03;3.70;99.90
22966;DHT22;11649;48.090;9.754;2023-02-01T10:33:41;3.60;99.90
22966;DHT22;11649;48.090;9.754;2023-02-01T10:36:22;3.60;99.90
22966;DHT22;11649;48.090;9.754;2023-02-01T10:38:51;3.90;99.90
22966;DHT22;11649;48.090;9.754;2023-02-01T10:41:20;4.10;99.90
22966;DHT22;11649;48.090;9.754;2023-02-01T10:43:54;4.40;99.90
22966;DHT22;11649;48.090;9.754;2023-02-01T10:46:23;4.60;99.90
22966;DHT22;11649;48.090;9.754;2023-02-01T10:48:52;4.70;99.90
22966;DHT22;11649;48.090;9.754;2023-02-01T10:51:30;5.00;99.90
22966;DHT22;11649;48.090;9.754;2023-02-01T10:54:31;4.90;99.90
22966;DHT22;11649;48.090;9.754;2023-02-01T10:56:58;4.70;99.90
22966;DHT22;11649;48.090;9.754;2023-02-01T10:59:29;4.70;99.90
22966;DHT22;11649;48.090;9.754;2023-02-01T11:02:02;4.60;99.90
22966;DHT22;11649;48.090;9.754;2023-02-01T11:04:34;4.50;99.90
22966;DHT22;11649;48.090;9.754;2023-02-01T11:07:19;4.50;99.90
22966;DHT22;11649;48.090;9.754;2023-02-01T11:09:51;4.50;99.90
22966;DHT22;11649;48.090;9.754;2023-02-01T11:12:41;4.30;99.90
22966;DHT22;11649;48.090;9.754;2023-02-01T11:15:20;4.30;99.90
22966;DHT22;11649;48.090;9.754;2023-02-01T11:17:50;4.30;99.90
22966;DHT22;11649;48.090;9.754;2023-02-01T11:22:58;4.40;99.90
22966;DHT22;11649;48.090;9.754;2023-02-01T11:25:26;4.40;99.90
22966;DHT22;11649;48.090;9.754;2023-02-01T11:27:55;4.40;99.90
22966;DHT22;11649;48.090;9.754;2023-02-01T11:30:33;4.30;99.90
22966;DHT22;11649;48.090;9.754;2023-02-01T11:33:03;4.30;99.90
22966;DHT22;11649;48.090;9.754;2023-02-01T11:35:34;4.20;99.90
22966;DHT22;11649;48.090;9.754;2023-02-01T11:38:12;4.20;99.90
22966;DHT22;11649;48.090;9.754;2023-02-01T11:40:40;4.20;99.90
22966;DHT22;11649;48.090;9.754;2023-02-01T11:43:22;4.20;99.90
22966;DHT22;11649;48.090;9.754;2023-02-01T11:46:01;4.10;99.90
22966;DHT22;11649;48.090;9.754;2023-02-01T11:48:31;4.10;99.90
22966;DHT22;11649;48.090;9.754;2023-02-01T12:11:24;4.30;99.90
22966;DHT22;11649;48.090;9.754;2023-02-01T12:19:36;4.30;99.90
22966;DHT22;11649;48.090;9.754;2023-02-01T12:22:29;4.20;99.90
22966;DHT22;11649;48.090;9.754;2023-02-01T12:25:21;4.20;99.90
22966;DHT22;11649;48.090;9.754;2023-02-01T12:28:19;4.30;99.90
22966;DHT22;11649;48.090;9.754;2023-02-01T12:37:40;4.40;99.90
22966;DHT22;11649;48.090;9.754;2023-02-01T12:43:02;4.20;99.90
22966;DHT22;11649;48.090;9.754;2023-02-01T12:45:59;4.30;99.90
22966;DHT22;11649;48.090;9.754;2023-02-01T12:51:23;4.20;99.90
22966;DHT22;11649;48.090;9.754;2023-02-01T12:56:44;4.20;99.90
22966;DHT22;11649;48.090;9.754;2023-02-01T12:59:25;4.20;99.90
22966;DHT22;11649;48.090;9.754;2023-02-01T13:04:33;4.30;99.90
22966;DHT22;11649;48.090;9.754;2023-02-01T13:07:10;4.20;99.90
22966;DHT22;11649;48.090;9.754;2023-02-01T13:09:45;4.30;99.90
22966;DHT22;11649;48.090;9.754;2023-02-01T13:12:23;4.30;99.90
22966;DHT22;11649;48.090;9.754;2023-02-01T13:15:00;4.30;99.90
22966;DHT22;11649;48.090;9.754;2023-02-01T13:17:31;4.30;99.90
22966;DHT22;11649;48.090;9.754;2023-02-01T13:20:21;4.20;99.90
22966;DHT22;11649;48.090;9.754;2023-02-01T13:23:41;4.20;99.90
22966;DHT22;11649;48.090;9.754;2023-02-01T13:26:01;4.20;99.90
22966;DHT22;11649;48.090;9.754;2023-02-01T13:28:32;4.20;99.90
22966;DHT22;11649;48.090;9.754;2023-02-01T13:31:26;4.30;99.90
22966;DHT22;11649;48.090;9.754;2023-02-01T13:39:59;4.20;99.90
22966;DHT22;11649;48.090;9.754;2023-02-01T13:45:46;4.10;99.90
22966;DHT22;11649;48.090;9.754;2023-02-01T13:48:23;4.00;99.90
22966;DHT22;11649;48.090;9.754;2023-02-01T13:50:56;4.00;99.90
22966;DHT22;11649;48.090;9.754;2023-02-01T13:53:32;4.00;99.90
22966;DHT22;11649;48.090;9.754;2023-02-01T13:56:02;3.60;99.90
22966;DHT22;11649;48.090;9.754;2023-02-01T13:58:33;3.40;99.90
22966;DHT22;11649;48.090;9.754;2023-02-01T14:03:56;3.10;99.90
22966;DHT22;11649;48.090;9.754;2023-02-01T14:19:28;2.90;99.90
22966;DHT22;11649;48.090;9.754;2023-02-01T14:21:59;2.90;99.90
22966;DHT22;11649;48.090;9.754;2023-02-01T14:24:35;3.00;99.90
22966;DHT22;11649;48.090;9.754;2023-02-01T14:27:18;3.00;99.90
22966;DHT22;11649;48.090;9.754;2023-02-01T14:30:02;3.00;99.90
22966;DHT22;11649;48.090;9.754;2023-02-01T14:32:39;3.00;99.90
22966;DHT22;11649;48.090;9.754;2023-02-01T14:35:20;3.10;99.90
22966;DHT22;11649;48.090;9.754;2023-02-01T14:37:52;3.10;99.90
22966;DHT22;11649;48.090;9.754;2023-02-01T14:40:24;3.20;99.90
22966;DHT22;11649;48.090;9.754;2023-02-01T14:42:52;3.20;99.90
22966;DHT22;11649;48.090;9.754;2023-02-01T14:47:47;3.20;99.90
22966;DHT22;11649;48.090;9.754;2023-02-01T14:58:57;3.30;99.90
22966;DHT22;11649;48.090;9.754;2023-02-01T15:01:38;3.40;99.90
22966;DHT22;11649;48.090;9.754;2023-02-01T15:04:10;3.40;99.90
22966;DHT22;11649;48.090;9.754;2023-02-01T15:06:44;3.50;99.90
22966;DHT22;11649;48.090;9.754;2023-02-01T15:11:58;3.60;99.90
22966;DHT22;11649;48.090;9.754;2023-02-01T15:14:27;3.50;99.90
22966;DHT22;11649;48.090;9.754;2023-02-01T15:16:54;3.60;99.90
22966;DHT22;11649;48.090;9.754;2023-02-01T15:19:23;3.60;99.90
22966;DHT22;11649;48.090;9.754;2023-02-01T15:21:52;3.70;99.90
22966;DHT22;11649;48.090;9.754;2023-02-01T15:24:25;3.70;99.90
22966;DHT22;11649;48.090;9.754;2023-02-01T15:26:54;3.60;99.90
22966;DHT22;11649;48.090;9.754;2023-02-01T15:29:23;3.70;99.90
22966;DHT22;11649;48.090;9.754;2023-02-01T15:31:54;3.70;99.90
22966;DHT22;11649;48.090;9.754;2023-02-01T15:34:21;3.70;99.90
22966;DHT22;11649;48.090;9.754;2023-02-01T15:37:04;3.70;99.90
22966;DHT22;11649;48.090;9.754;2023-02-01T15:39:31;3.60;99.90
22966;DHT22;11649;48.090;9.754;2023-02-01T15:42:01;3.70;99.90
22966;DHT22;11649;48.090;9.754;2023-02-01T15:44:43;3.80;99.90
22966;DHT22;11649;48.090;9.754;2023-02-01T15:47:23;3.80;99.90
22966;DHT22;11649;48.090;9.754;2023-02-01T15:49:53;3.90;99.90
22966;DHT22;11649;48.090;9.754;2023-02-01T15:52:27;3.90;99.90
22966;DHT22;11649;48.090;9.754;2023-02-01T15:54:59;3.90;99.90
22966;DHT22;11649;48.090;9.754;2023-02-01T15:57:30;3.90;99.90
22966;DHT22;11649;48.090;9.754;2023-02-01T16:00:04;4.00;99.90
22966;DHT22;11649;48.090;9.754;2023-02-01T16:02:33;4.00;99.90
22966;DHT22;11649;48.090;9.754;2023-02-01T16:05:02;3.90;99.90
22966;DHT22;11649;48.090;9.754;2023-02-01T16:07:31;3.90;99.90
22966;DHT22;11649;48.090;9.754;2023-02-01T16:10:01;3.90;99.90
22966;DHT22;11649;48.090;9.754;2023-02-01T16:12:45;3.90;99.90
22966;DHT22;11649;48.090;9.754;2023-02-01T16:15:14;3.80;99.90
22966;DHT22;11649;48.090;9.754;2023-02-01T16:17:40;3.80;99.90
22966;DHT22;11649;48.090;9.754;2023-02-01T16:20:08;3.80;99.90
22966;DHT22;11649;48.090;9.754;2023-02-01T16:22:35;3.90;99.90
22966;DHT22;11649;48.090;9.754;2023-02-01T16:25:02;3.90;99.90
22966;DHT22;11649;48.090;9.754;2023-02-01T16:27:29;3.90;99.90
22966;DHT22;11649;48.090;9.754;2023-02-01T16:29:56;3.80;99.90
22966;DHT22;11649;48.090;9.754;2023-02-01T16:32:23;3.90;99.90
22966;DHT22;11649;48.090;9.754;2023-02-01T16:34:50;3.90;99.90
22966;DHT22;11649;48.090;9.754;2023-02-01T16:37:23;3.90;99.90
22966;DHT22;11649;48.090;9.754;2023-02-01T16:39:51;3.90;99.90
22966;DHT22;11649;48.090;9.754;2023-02-01T16:42:18;3.90;99.90
22966;DHT22;11649;48.090;9.754;2023-02-01T16:44:45;3.90;99.90
22966;DHT22;11649;48.090;9.754;2023-02-01T16:47:16;3.90;99.90
22966;DHT22;11649;48.090;9.754;2023-02-01T16:49:44;3.80;99.90
22966;DHT22;11649;48.090;9.754;2023-02-01T16:52:21;3.80;99.90
22966;DHT22;11649;48.090;9.754;2023-02-01T16:54:48;3.90;99.90
22966;DHT22;11649;48.090;9.754;2023-02-01T16:57:18;3.80;99.90
22966;DHT22;11649;48.090;9.754;2023-02-01T16:59:46;3.90;99.90
22966;DHT22;11649;48.090;9.754;2023-02-01T17:02:15;3.90;99.90
22966;DHT22;11649;48.090;9.754;2023-02-01T17:04:42;3.90;99.90
22966;DHT22;11649;48.090;9.754;2023-02-01T17:07:14;3.90;99.90
22966;DHT22;11649;48.090;9.754;2023-02-01T17:09:42;3.90;99.90
22966;DHT22;11649;48.090;9.754;2023-02-01T17:12:23;3.90;99.90
22966;DHT22;11649;48.090;9.754;2023-02-01T17:14:51;3.80;99.90
22966;DHT22;11649;48.090;9.754;2023-02-01T17:17:20;3.80;99.90
22966;DHT22;11649;48.090;9.754;2023-02-01T17:19:58;3.80;99.90
22966;DHT22;11649;48.090;9.754;2023-02-01T17:22:25;3.80;99.90
22966;DHT22;11649;48.090;9.754;2023-02-01T17:24:51;3.80;99.90
22966;DHT22;11649;48.090;9.754;2023-02-01T17:27:18;3.80;99.90
22966;DHT22;11649;48.090;9.754;2023-02-01T17:29:45;3.80;99.90
22966;DHT22;11649;48.090;9.754;2023-02-01T17:32:24;3.80;99.90
22966;DHT22;11649;48.090;9.754;2023-02-01T17:34:51;3.80;99.90
22966;DHT22;11649;48.090;9.754;2023-02-01T17:37:25;3.80;99.90
22966;DHT22;11649;48.090;9.754;2023-02-01T17:39:52;3.90;99.90
22966;DHT22;11649;48.090;9.754;2023-02-01T17:42:23;3.90;99.90
22966;DHT22;11649;48.090;9.754;2023-02-01T17:45:02;3.70;99.90
22966;DHT22;11649;48.090;9.754;2023-02-01T17:47:36;3.80;99.90
22966;DHT22;11649;48.090;9.754;2023-02-01T17:50:04;3.80;99.90
22966;DHT22;11649;48.090;9.754;2023-02-01T17:52:31;3.90;99.90
22966;DHT22;11649;48.090;9.754;2023-02-01T17:54:58;3.90;99.90
22966;DHT22;11649;48.090;9.754;2023-02-01T17:57:24;3.80;99.90
22966;DHT22;11649;48.090;9.754;2023-02-01T17:59:51;3.90;99.90
22966;DHT22;11649;48.090;9.754;2023-02-01T18:02:21;3.90;99.90
22966;DHT22;11649;48.090;9.754;2023-02-01T18:04:49;3.80;99.90
22966;DHT22;11649;48.090;9.754;2023-02-01T18:07:16;3.80;99.90
22966;DHT22;11649;48.090;9.754;2023-02-01T18:09:43;3.90;99.90
22966;DHT22;11649;48.090;9.754;2023-02-01T18:12:21;4.00;99.90
22966;DHT22;11649;48.090;9.754;2023-02-01T18:14:48;3.90;99.90
22966;DHT22;11649;48.090;9.754;2023-02-01T18:17:15;3.90;99.90
22966;DHT22;11649;48.090;9.754;2023-02-01T18:19:42;3.90;99.90
22966;DHT22;11649;48.090;9.754;2023-02-01T18:22:15;3.90;99.90
22966;DHT22;11649;48.090;9.754;2023-02-01T18:24:42;3.80;99.90
22966;DHT22;11649;48.090;9.754;2023-02-01T18:27:09;3.90;99.90
22966;DHT22;11649;48.090;9.754;2023-02-01T18:29:35;3.90;99.90
22966;DHT22;11649;48.090;9.754;2023-02-01T18:32:02;3.80;99.90